Franktown, CO

3:47 PM MDT on October 01, 2014 (GMT -0600)
Deerfield | Change Station
CLOSE
Current Station
Personal Weather Station
Location: Franktown, CO
Elevation: 6503 ft
Nearby Weather Stations

Elev 6503 ft 39.37 °N, 104.70 °W | Updated 8 seconds ago

Mostly Cloudy
Mostly Cloudy
48.6 °F
Feels Like 49 °F
N
2.9
Wind Variable Wind from NW
Gusts 5.4 mph

Today
High -- | Low -- °F
--% Chance of Precip.
Yesterday
High -- | Low -- °F
Precip. -- in
6:54 AM 6:41 PM
Waxing Crescent, 51% visible
Pressure 29.89 in
Visibility 10.0 miles
Clouds Scattered Clouds 12000 ft
Windchill 49 °F
Dew Point 38 °F
Humidity 66%
Rainfall 0.15 in
Snow Depth 2 in , 0 in , 2 in
UV 3 out of 12
Pollen 3.40 out of 12
Ozone Good
PM2.5 Good
Flu Activity Not available.
METAR KMNH 012132Z AUTO 20016G23KT 10SM SCT120 16/M01 A2989 RMK AO2 LTG DSNT NW

More Conditions Fewer Conditions

Pressure 29.89 in
Visibility 10.0 miles
Clouds Scattered Clouds 12000 ft
Windchill 49 °F
Dew Point 38 °F
Humidity 66%
Rainfall 0.15 in
Snow Depth 2 in , 0 in , 2 in
UV 3 out of 12
Pollen 3.40 out of 12
Ozone Good
PM2.5 Good
Flu Activity Not available.
METAR KMNH 012132Z AUTO 20016G23KT 10SM SCT120 16/M01 A2989 RMK AO2 LTG DSNT NW

More Conditions Fewer Conditions

Nowcast | as of 2:22 PM MDT on October 1, 2014

Showers and isolated thunderstorms will move off the foothills over the Front Range cities through 4 PM. The strongest storms will be in Weld County and will produce brief heavy rain and wind gusts to 40 mph.

×

10-Day Weather Forecast

Almanac

Astronomy

Oct. 01, 2014 Rise Set
Actual Time 6:54 AM MDT 6:41 PM MDT
Civil Twilight 6:28 AM MDT 7:08 PM MDT
Nautical Twilight 5:57 AM MDT 7:39 PM MDT
Astronomical Twilight 5:25 AM MDT 8:10 PM MDT
Moon 1:56 PM MDT No Moon Set
Length of Visible Light 12h 39m
Length of Day
11h 46m
Tomorrow will be 2m 33s shorter.
Waxing Crescent, 51% of the Moon is Illuminated
Today
Waxing Crescent
Oct 8
Full
Oct 15
Last Quarter
Oct 23
New
Oct 30
First Quarter

Today's Extremes

State Highs State Lows

Community

WunderPhotos

Upload Photos

1,758,057 photos uploaded!

WunderBlogs® & News

By Dr. Jeff Masters
Director of Meteorology, Weather Underground
By Kari Strenfel
Meteorologist, Weather Underground
By Christopher C. Burt
Weather Historian, Weather Underground
October 1, 2014
October 1, 2014
October 1, 2014

Nearby

Air Quality

  Air Quality AQ Index Pollutant
Yesterday Good
OZONE
Yesterday Good
PM10
Current Good
OZONE
Current Good
PM2.5
Wednesday Good
OZONE
Wednesday Good
PM2.5
Thursday Good
OZONE
Thursday Good
PM2.5

Snow Depth

Station Depth Elevation
Roach 2 in 9700 ft
Spud Mountain 0 in 10660 ft
Zirkel 2 in 9340 ft
Jones Pass 4 in 10400 ft
Lizard Head Pass 0 in 10200 ft

Earthquake Activity

City Distance Mag. Time & Date
No recent earthquake activity has been reported nearby.
Minimum magnitude displayed is 2.5.

Coastal Water Temperatures

Place Temperature
No Stations Reporting

Nearby Weather Stations